createdAt,value
2023-05-13T00:01:11.121Z,11.70
2023-05-13T00:03:38.216Z,11.70
2023-05-13T00:06:05.122Z,11.70
2023-05-13T00:08:32.176Z,11.70
2023-05-13T00:10:58.789Z,11.70
2023-05-13T00:13:25.879Z,11.70
2023-05-13T00:15:52.807Z,11.70
2023-05-13T00:18:19.964Z,11.70
2023-05-13T00:20:46.597Z,11.70
2023-05-13T00:23:14.741Z,11.70
2023-05-13T00:25:41.964Z,11.60
2023-05-13T00:28:09.042Z,11.60
2023-05-13T00:30:36.927Z,11.60
2023-05-13T00:33:03.845Z,11.60
2023-05-13T00:35:31.085Z,11.50
2023-05-13T00:37:57.738Z,11.50
2023-05-13T00:40:25.266Z,11.50
2023-05-13T00:42:52.202Z,11.50
2023-05-13T00:45:20.381Z,11.50
2023-05-13T00:47:48.592Z,11.40
2023-05-13T00:50:16.314Z,11.30
2023-05-13T00:52:43.374Z,11.30
2023-05-13T00:55:11.234Z,11.40
2023-05-13T00:57:39.981Z,11.30
2023-05-13T01:00:08.331Z,11.30
2023-05-13T01:03:02.010Z,11.30
2023-05-13T01:05:57.673Z,11.30
2023-05-13T01:08:29.179Z,11.30
2023-05-13T01:11:09.849Z,11.30
2023-05-13T01:13:42.950Z,11.30
2023-05-13T01:16:27.164Z,11.30
2023-05-13T01:18:58.459Z,11.30
2023-05-13T01:21:27.206Z,11.30
2023-05-13T01:23:54.602Z,11.30
2023-05-13T01:26:24.359Z,11.30
2023-05-13T01:28:51.404Z,11.30
2023-05-13T01:31:21.310Z,11.20
2023-05-13T01:33:49.394Z,11.20
2023-05-13T01:36:17.604Z,11.10
2023-05-13T01:38:44.880Z,11.00
2023-05-13T01:41:12.214Z,11.00
2023-05-13T01:43:38.959Z,10.90
2023-05-13T01:46:12.641Z,10.80
2023-05-13T01:48:39.499Z,10.80
2023-05-13T01:51:07.200Z,10.70
2023-05-13T01:53:34.626Z,10.70
2023-05-13T01:56:01.374Z,10.60
2023-05-13T01:58:29.100Z,10.60
2023-05-13T02:00:55.814Z,10.70
2023-05-13T02:03:23.164Z,10.70
2023-05-13T02:05:49.896Z,10.80
2023-05-13T02:08:17.907Z,10.80
2023-05-13T02:10:44.589Z,10.90
2023-05-13T02:13:12.331Z,10.90
2023-05-13T02:15:39.270Z,10.90
2023-05-13T02:18:06.561Z,10.90
2023-05-13T02:20:33.249Z,10.90
2023-05-13T02:23:01.093Z,10.90
2023-05-13T02:25:28.019Z,10.80
2023-05-13T02:27:55.350Z,10.70
2023-05-13T02:30:26.744Z,10.70
2023-05-13T02:32:54.855Z,10.70
2023-05-13T02:35:22.364Z,10.60
2023-05-13T02:37:49.344Z,10.50
2023-05-13T02:40:17.243Z,10.50
2023-05-13T02:42:45.812Z,10.40
2023-05-13T02:45:14.518Z,10.40
2023-05-13T02:47:45.070Z,10.40
2023-05-13T02:50:12.765Z,10.40
2023-05-13T02:52:40.425Z,10.40
2023-05-13T02:55:09.527Z,10.40
2023-05-13T02:57:40.047Z,10.40
2023-05-13T03:00:08.207Z,10.40
2023-05-13T03:02:36.194Z,10.30
2023-05-13T03:05:04.039Z,10.30
2023-05-13T03:07:30.672Z,10.20
2023-05-13T03:09:58.791Z,10.20
2023-05-13T03:12:25.493Z,10.10
2023-05-13T03:14:52.745Z,10.10
2023-05-13T03:17:19.462Z,10.00
2023-05-13T03:19:47.219Z,10.00
2023-05-13T03:22:14.445Z,10.00
2023-05-13T03:24:42.992Z,9.90
2023-05-13T03:27:10.116Z,9.90
2023-05-13T03:29:39.151Z,9.90
2023-05-13T03:32:06.605Z,9.80
2023-05-13T03:34:36.489Z,9.80
2023-05-13T03:37:04.096Z,9.80
2023-05-13T03:39:31.904Z,9.80
2023-05-13T03:41:58.991Z,9.80
2023-05-13T03:44:26.049Z,9.80
2023-05-13T03:46:53.487Z,9.80
2023-05-13T03:49:20.179Z,9.80
2023-05-13T03:51:47.437Z,9.80
2023-05-13T03:54:14.228Z,9.90
2023-05-13T03:56:41.509Z,9.90
2023-05-13T03:59:08.130Z,10.00
2023-05-13T04:01:36.555Z,10.00
2023-05-13T04:04:03.319Z,10.00
2023-05-13T04:06:32.137Z,10.10
2023-05-13T04:08:58.811Z,10.10
2023-05-13T04:11:26.186Z,10.20
2023-05-13T04:13:54.485Z,10.30
2023-05-13T04:16:21.856Z,10.40
2023-05-13T04:18:48.577Z,10.50
2023-05-13T04:21:16.010Z,10.60
2023-05-13T04:23:42.684Z,10.60
2023-05-13T04:26:09.972Z,10.70
2023-05-13T04:28:36.651Z,10.80
2023-05-13T04:31:03.871Z,10.90
2023-05-13T04:33:34.501Z,10.90
2023-05-13T04:36:01.243Z,11.00
2023-05-13T04:38:28.556Z,11.10
2023-05-13T04:40:55.262Z,11.20
2023-05-13T04:43:30.650Z,11.20
2023-05-13T04:45:59.105Z,11.30
2023-05-13T04:48:28.216Z,11.30
2023-05-13T04:50:58.165Z,11.30
2023-05-13T04:53:25.818Z,11.30
2023-05-13T04:56:00.426Z,11.40
2023-05-13T04:58:29.161Z,11.40
2023-05-13T05:00:57.214Z,11.50
2023-05-13T05:03:25.058Z,11.60
2023-05-13T05:05:51.849Z,11.70
2023-05-13T05:08:19.510Z,11.80
2023-05-13T05:10:47.817Z,11.90
2023-05-13T05:13:15.993Z,11.90
2023-05-13T05:15:43.823Z,12.10
2023-05-13T05:18:11.951Z,12.40
2023-05-13T05:20:39.643Z,14.40
2023-05-13T05:23:12.777Z,16.20
2023-05-13T05:25:39.478Z,17.90
2023-05-13T05:28:06.856Z,18.90
2023-05-13T05:30:39.235Z,19.80
2023-05-13T05:33:11.549Z,20.40
2023-05-13T05:35:40.169Z,21.10
2023-05-13T05:38:11.549Z,21.60
2023-05-13T05:40:41.976Z,22.30
2023-05-13T05:43:11.266Z,22.80
2023-05-13T05:45:39.212Z,23.40
2023-05-13T05:48:08.382Z,23.80
2023-05-13T05:50:36.434Z,24.00
2023-05-13T05:53:07.355Z,24.10
2023-05-13T05:55:36.758Z,24.30
2023-05-13T05:58:05.765Z,24.50
2023-05-13T06:00:34.682Z,24.90
2023-05-13T06:03:02.267Z,25.00
2023-05-13T06:05:28.984Z,25.40
2023-05-13T06:07:56.717Z,25.70
2023-05-13T06:10:23.481Z,26.10
2023-05-13T06:12:51.620Z,26.30
2023-05-13T06:15:18.346Z,26.60
2023-05-13T06:17:45.643Z,26.80
2023-05-13T06:20:12.619Z,27.00
2023-05-13T06:22:41.321Z,27.30
2023-05-13T06:25:08.412Z,27.40
2023-05-13T06:27:36.979Z,27.60
2023-05-13T06:30:04.058Z,28.50
2023-05-13T06:32:31.319Z,28.40
2023-05-13T06:34:58.103Z,28.50
2023-05-13T06:37:25.780Z,28.30
2023-05-13T06:39:52.506Z,28.50
2023-05-13T06:42:19.717Z,28.50
2023-05-13T06:44:54.580Z,28.80
2023-05-13T06:47:27.503Z,28.80
2023-05-13T06:49:54.197Z,28.30
2023-05-13T06:52:20.797Z,28.10
2023-05-13T06:54:48.449Z,28.30
2023-05-13T06:57:15.037Z,28.50
2023-05-13T06:59:42.397Z,28.20
2023-05-13T07:02:10.160Z,28.10
2023-05-13T07:04:37.288Z,28.40
2023-05-13T07:07:04.381Z,28.00
2023-05-13T07:09:31.603Z,28.50
2023-05-13T07:11:58.529Z,28.20
2023-05-13T07:14:26.034Z,28.60
2023-05-13T07:16:53.431Z,28.20
2023-05-13T07:19:20.207Z,28.40
2023-05-13T07:21:47.456Z,27.90
2023-05-13T07:24:14.481Z,28.50
2023-05-13T07:26:42.262Z,28.40
2023-05-13T07:29:08.934Z,28.90
2023-05-13T07:31:35.911Z,28.80
2023-05-13T07:34:03.648Z,28.50
2023-05-13T07:36:30.587Z,28.70
2023-05-13T07:38:58.044Z,29.00
2023-05-13T07:41:24.741Z,28.10
2023-05-13T07:43:51.953Z,28.50
2023-05-13T07:46:18.546Z,28.50
2023-05-13T07:48:46.109Z,28.60
2023-05-13T07:51:12.710Z,28.60
2023-05-13T07:53:40.035Z,28.40
2023-05-13T07:56:07.734Z,28.10
2023-05-13T07:58:35.033Z,27.70
2023-05-13T08:01:01.750Z,27.30
2023-05-13T08:03:29.149Z,27.00
2023-05-13T08:05:55.907Z,26.60
2023-05-13T08:08:23.235Z,26.80
2023-05-13T08:10:49.856Z,26.90
2023-05-13T08:13:17.084Z,26.00
2023-05-13T08:15:43.762Z,25.80
2023-05-13T08:18:11.145Z,25.40
2023-05-13T08:20:37.941Z,25.00
2023-05-13T08:23:05.161Z,25.10
2023-05-13T08:25:31.788Z,24.50
2023-05-13T08:27:59.173Z,24.00
2023-05-13T08:30:25.906Z,23.70
2023-05-13T08:32:53.386Z,23.20
2023-05-13T08:35:20.287Z,23.20
2023-05-13T08:37:47.779Z,23.10
2023-05-13T08:40:15.145Z,23.10
2023-05-13T08:42:43.413Z,23.20
2023-05-13T08:45:11.537Z,23.30
2023-05-13T08:47:59.837Z,22.70
2023-05-13T08:50:27.474Z,22.70
2023-05-13T08:52:56.056Z,22.40
2023-05-13T08:55:24.109Z,22.20
2023-05-13T08:57:52.050Z,22.10
2023-05-13T09:00:21.395Z,22.10
2023-05-13T09:02:49.858Z,22.00
2023-05-13T09:05:18.337Z,22.10
2023-05-13T09:07:45.456Z,22.10
2023-05-13T09:10:12.690Z,22.10
2023-05-13T09:12:46.238Z,22.20
2023-05-13T09:15:19.614Z,22.10
2023-05-13T09:18:05.307Z,22.00
2023-05-13T09:20:34.086Z,22.10
2023-05-13T09:23:09.319Z,22.10
2023-05-13T09:25:37.612Z,22.30
2023-05-13T09:28:07.780Z,22.50
2023-05-13T09:30:36.739Z,22.40
2023-05-13T09:33:15.281Z,22.10
2023-05-13T09:35:52.480Z,22.00
2023-05-13T09:38:24.965Z,22.20
2023-05-13T09:40:52.260Z,22.50
2023-05-13T09:43:21.834Z,22.70
2023-05-13T09:45:52.456Z,22.90
2023-05-13T09:48:23.075Z,22.90
2023-05-13T09:50:51.114Z,22.90
2023-05-13T09:53:18.977Z,22.90
2023-05-13T09:55:51.109Z,22.90
2023-05-13T09:58:20.132Z,22.80
2023-05-13T10:00:48.116Z,23.00
2023-05-13T10:03:15.936Z,22.80
2023-05-13T10:05:43.846Z,22.90
2023-05-13T10:08:13.076Z,22.70
2023-05-13T10:10:41.653Z,22.20
2023-05-13T10:13:13.402Z,21.90
2023-05-13T10:15:51.496Z,22.00
2023-05-13T10:18:19.854Z,22.20
2023-05-13T10:20:47.002Z,22.40
2023-05-13T10:23:15.415Z,22.60
2023-05-13T10:25:43.619Z,22.70
2023-05-13T10:28:10.670Z,22.70
2023-05-13T10:30:39.250Z,22.70
2023-05-13T10:33:06.158Z,22.90
2023-05-13T10:35:38.532Z,23.10
2023-05-13T10:38:16.278Z,23.50
2023-05-13T10:41:01.418Z,23.60
2023-05-13T10:43:30.526Z,23.70
2023-05-13T10:46:00.189Z,23.70
2023-05-13T10:48:38.071Z,23.50
2023-05-13T10:51:08.030Z,23.40
2023-05-13T10:53:55.305Z,23.60
2023-05-13T10:56:28.173Z,23.60
2023-05-13T10:58:59.939Z,23.70
2023-05-13T11:01:43.923Z,23.90
2023-05-13T11:04:20.323Z,23.90
2023-05-13T11:06:50.777Z,23.80
2023-05-13T11:09:20.747Z,23.90
2023-05-13T11:11:49.083Z,23.80
2023-05-13T11:14:30.554Z,23.80
2023-05-13T11:17:00.231Z,23.80
2023-05-13T11:19:47.936Z,23.90
2023-05-13T11:22:18.751Z,24.00
2023-05-13T11:25:02.797Z,23.80
2023-05-13T11:27:37.587Z,23.80
2023-05-13T11:30:21.906Z,24.00
2023-05-13T11:32:52.206Z,24.30
2023-05-13T11:35:30.588Z,24.50
2023-05-13T11:38:00.265Z,24.40
2023-05-13T11:40:33.634Z,24.40
2023-05-13T11:43:01.218Z,24.60
2023-05-13T11:45:30.108Z,24.50
2023-05-13T11:47:57.547Z,24.60
2023-05-13T11:50:30.597Z,24.60
2023-05-13T11:52:59.177Z,24.50
2023-05-13T11:55:31.905Z,24.30
2023-05-13T11:57:59.355Z,24.30
2023-05-13T12:00:34.755Z,24.30
2023-05-13T12:03:11.589Z,24.40
2023-05-13T12:05:39.845Z,24.40
2023-05-13T12:08:10.113Z,24.60
2023-05-13T12:10:43.969Z,24.60
2023-05-13T12:13:10.970Z,24.80
2023-05-13T12:15:38.385Z,24.70
2023-05-13T12:18:05.381Z,24.70
2023-05-13T12:20:33.774Z,24.40
2023-05-13T12:23:01.412Z,24.60
2023-05-13T12:25:42.089Z,24.80
2023-05-13T12:28:22.808Z,25.10
2023-05-13T12:30:50.680Z,25.00
2023-05-13T12:33:38.676Z,24.90
2023-05-13T12:36:35.913Z,24.70
2023-05-13T12:39:07.035Z,24.20
2023-05-13T12:41:36.427Z,24.10
2023-05-13T12:44:07.442Z,24.50
2023-05-13T12:46:35.554Z,24.90
2023-05-13T12:49:04.158Z,25.00
2023-05-13T12:51:31.865Z,24.90
2023-05-13T12:53:58.589Z,24.40
2023-05-13T12:56:26.192Z,23.90
2023-05-13T12:58:54.001Z,23.40
2023-05-13T13:01:21.585Z,23.30
2023-05-13T13:03:48.375Z,23.20
2023-05-13T13:06:15.976Z,23.00
2023-05-13T13:08:42.688Z,22.90
2023-05-13T13:11:10.591Z,23.00
2023-05-13T13:13:39.239Z,23.00
2023-05-13T13:16:07.554Z,23.10
2023-05-13T13:18:34.208Z,23.20
2023-05-13T13:21:01.497Z,23.20
2023-05-13T13:23:28.436Z,23.20
2023-05-13T13:25:55.828Z,23.00
2023-05-13T13:28:22.790Z,23.00
2023-05-13T13:30:49.545Z,22.80
2023-05-13T13:33:17.039Z,22.70
2023-05-13T13:35:45.399Z,22.60
2023-05-13T13:38:13.417Z,22.50
2023-05-13T13:40:40.281Z,22.50
2023-05-13T13:43:08.412Z,22.90
2023-05-13T13:45:35.283Z,23.20
2023-05-13T13:48:03.358Z,23.70
2023-05-13T13:50:30.160Z,24.20
2023-05-13T13:52:57.438Z,24.50
2023-05-13T13:55:24.390Z,24.70
2023-05-13T13:57:52.352Z,24.90
2023-05-13T14:00:19.530Z,24.70
2023-05-13T14:02:46.992Z,24.40
2023-05-13T14:05:13.829Z,24.20
2023-05-13T14:07:41.335Z,23.80
2023-05-13T14:10:08.822Z,23.50
2023-05-13T14:12:36.554Z,23.60
2023-05-13T14:15:03.634Z,23.80
2023-05-13T14:17:32.512Z,24.00
2023-05-13T14:19:59.130Z,24.00
2023-05-13T14:22:26.502Z,24.00
2023-05-13T14:24:53.238Z,24.10
2023-05-13T14:27:21.875Z,24.00
2023-05-13T14:29:48.954Z,24.10
2023-05-13T14:32:16.439Z,24.10
2023-05-13T14:34:43.119Z,24.10
2023-05-13T14:37:10.111Z,24.20
2023-05-13T14:39:36.889Z,24.20
2023-05-13T14:42:04.546Z,24.30
2023-05-13T14:44:31.912Z,24.40
2023-05-13T14:46:58.915Z,24.60
2023-05-13T14:49:26.231Z,24.90
2023-05-13T14:51:52.898Z,25.00
2023-05-13T14:54:20.220Z,24.80
2023-05-13T14:56:47.019Z,24.40
2023-05-13T14:59:13.979Z,23.80
2023-05-13T15:01:40.771Z,23.20
2023-05-13T15:04:08.016Z,22.70
2023-05-13T15:06:36.417Z,22.20
2023-05-13T15:09:04.032Z,21.90
2023-05-13T15:11:30.751Z,21.70
2023-05-13T15:13:57.996Z,21.40
2023-05-13T15:16:24.707Z,20.90
2023-05-13T15:18:52.004Z,20.50
2023-05-13T15:21:18.620Z,20.10
2023-05-13T15:23:45.858Z,19.70
2023-05-13T15:26:12.626Z,19.10
2023-05-13T15:28:39.937Z,18.90
2023-05-13T15:31:06.753Z,18.70
2023-05-13T15:33:34.148Z,18.60
2023-05-13T15:36:01.308Z,18.60
2023-05-13T15:38:28.672Z,18.50
2023-05-13T15:40:55.378Z,18.40
2023-05-13T15:43:22.812Z,18.50
2023-05-13T15:45:50.033Z,18.60
2023-05-13T15:48:17.915Z,18.60
2023-05-13T15:50:45.273Z,18.50
2023-05-13T15:53:11.876Z,18.40
2023-05-13T15:55:39.710Z,18.40
2023-05-13T15:58:06.933Z,18.20
2023-05-13T16:00:34.362Z,17.90
2023-05-13T16:03:01.475Z,17.60
2023-05-13T16:05:28.957Z,17.50
2023-05-13T16:07:57.062Z,17.30
2023-05-13T16:10:24.404Z,17.10
2023-05-13T16:12:51.484Z,17.00
2023-05-13T16:15:18.751Z,16.80
2023-05-13T16:17:45.499Z,16.70
2023-05-13T16:20:13.614Z,16.30
2023-05-13T16:22:40.400Z,16.30
2023-05-13T16:25:09.218Z,16.20
2023-05-13T16:27:36.864Z,16.20
2023-05-13T16:32:56.002Z,16.10
2023-05-13T16:35:23.041Z,16.20
2023-05-13T16:37:50.728Z,16.10
2023-05-13T16:40:18.014Z,16.10
2023-05-13T16:42:45.078Z,16.00
2023-05-13T16:45:12.752Z,15.90
2023-05-13T16:47:39.414Z,15.80
2023-05-13T16:50:08.786Z,15.70
2023-05-13T16:52:35.664Z,15.80
2023-05-13T16:55:03.261Z,15.70
2023-05-13T16:57:29.928Z,15.70
2023-05-13T16:59:57.283Z,15.70
2023-05-13T17:02:24.083Z,15.70
2023-05-13T17:04:51.578Z,15.70
2023-05-13T17:07:18.183Z,15.60
2023-05-13T17:09:45.682Z,15.60
2023-05-13T17:12:12.363Z,15.60
2023-05-13T17:14:40.022Z,15.70
2023-05-13T17:17:06.861Z,15.70
2023-05-13T17:19:34.277Z,15.70
2023-05-13T17:22:01.072Z,15.80
2023-05-13T17:24:29.706Z,15.70
2023-05-13T17:26:56.580Z,15.70
2023-05-13T17:29:25.796Z,15.70
2023-05-13T17:31:52.977Z,15.70
2023-05-13T17:34:20.588Z,15.70
2023-05-13T17:36:49.968Z,15.60
2023-05-13T17:39:17.585Z,15.70
2023-05-13T17:41:44.212Z,15.70
2023-05-13T17:44:11.627Z,15.70
2023-05-13T17:46:38.228Z,15.70
2023-05-13T17:49:05.613Z,15.60
2023-05-13T17:51:32.320Z,15.60
2023-05-13T17:53:59.551Z,15.60
2023-05-13T17:56:26.570Z,15.70
2023-05-13T17:58:53.884Z,15.70
2023-05-13T18:01:21.581Z,15.70
2023-05-13T18:03:49.045Z,15.80
2023-05-13T18:06:15.929Z,15.80
2023-05-13T18:08:43.256Z,15.80
2023-05-13T18:11:10.014Z,15.70
2023-05-13T18:13:37.470Z,15.80
2023-05-13T18:16:05.826Z,15.70
2023-05-13T18:18:33.168Z,15.70
2023-05-13T18:21:00.325Z,15.60
2023-05-13T18:23:27.553Z,15.60
2023-05-13T18:25:56.172Z,15.50
2023-05-13T18:28:24.230Z,15.50
2023-05-13T18:30:51.031Z,15.40
2023-05-13T18:33:20.393Z,15.30
2023-05-13T18:35:47.191Z,15.30
2023-05-13T18:38:14.426Z,15.20
2023-05-13T18:40:41.077Z,15.20
2023-05-13T18:43:08.323Z,15.20
2023-05-13T18:45:35.151Z,15.10
2023-05-13T18:48:02.485Z,15.10
2023-05-13T18:50:29.175Z,15.00
2023-05-13T18:52:56.558Z,15.00
2023-05-13T18:55:23.175Z,15.00
2023-05-13T18:57:50.990Z,15.10
2023-05-13T19:00:18.352Z,15.00
2023-05-13T19:02:45.679Z,15.10
2023-05-13T19:05:12.495Z,15.00
2023-05-13T19:07:39.748Z,15.00
2023-05-13T19:10:06.955Z,15.00
2023-05-13T19:12:34.262Z,15.00
2023-05-13T19:15:00.985Z,15.00
2023-05-13T19:17:28.410Z,14.90
2023-05-13T19:19:55.205Z,14.90
2023-05-13T19:22:22.494Z,14.90
2023-05-13T19:24:49.164Z,14.80
2023-05-13T19:27:16.447Z,14.80
2023-05-13T19:29:43.097Z,14.70
2023-05-13T19:32:10.316Z,14.60
2023-05-13T19:34:36.914Z,14.60
2023-05-13T19:37:05.345Z,14.40
2023-05-13T19:39:32.581Z,14.30
2023-05-13T19:41:59.397Z,14.30
2023-05-13T19:44:28.197Z,14.20
2023-05-13T19:46:55.379Z,14.10
2023-05-13T19:49:22.886Z,14.00
2023-05-13T19:51:49.540Z,13.90
2023-05-13T19:54:16.939Z,13.90
2023-05-13T19:56:43.576Z,13.80
2023-05-13T19:59:10.819Z,13.80
2023-05-13T20:01:37.755Z,13.70
2023-05-13T20:04:05.338Z,13.70
2023-05-13T20:06:32.515Z,13.60
2023-05-13T20:09:01.033Z,13.60
2023-05-13T20:11:27.977Z,13.50
2023-05-13T20:13:56.014Z,13.50
2023-05-13T20:16:23.346Z,13.40
2023-05-13T20:18:51.124Z,13.40
2023-05-13T20:21:17.865Z,13.30
2023-05-13T20:23:45.068Z,13.30
2023-05-13T20:26:11.690Z,13.20
2023-05-13T20:28:38.937Z,13.20
2023-05-13T20:31:05.664Z,13.10
2023-05-13T20:33:33.163Z,13.10
2023-05-13T20:35:59.761Z,13.00
2023-05-13T20:38:27.455Z,12.90
2023-05-13T20:40:54.345Z,12.90
2023-05-13T20:43:21.565Z,12.90
2023-05-13T20:45:48.606Z,12.80
2023-05-13T20:48:15.584Z,12.80
2023-05-13T20:50:42.224Z,12.80
2023-05-13T20:53:09.481Z,12.70
2023-05-13T20:55:37.297Z,12.70
2023-05-13T20:58:04.540Z,12.70
2023-05-13T21:00:31.227Z,12.60
2023-05-13T21:02:58.371Z,12.60
2023-05-13T21:05:25.983Z,12.50
2023-05-13T21:07:52.692Z,12.50
2023-05-13T21:10:20.034Z,12.50
2023-05-13T21:12:47.977Z,12.50
2023-05-13T21:15:15.451Z,12.40
2023-05-13T21:17:42.194Z,12.40
2023-05-13T21:20:11.559Z,12.40
2023-05-13T21:22:38.264Z,12.40
2023-05-13T21:25:06.835Z,12.30
2023-05-13T21:27:33.572Z,12.30
2023-05-13T21:30:00.817Z,12.30
2023-05-13T21:32:27.485Z,12.30
2023-05-13T21:34:56.127Z,12.30
2023-05-13T21:37:23.056Z,12.30
2023-05-13T21:39:50.288Z,12.30
2023-05-13T21:42:16.907Z,12.30
2023-05-13T21:44:44.328Z,12.20
2023-05-13T21:47:10.931Z,12.20
2023-05-13T21:49:38.259Z,12.20
2023-05-13T21:52:05.544Z,12.20
2023-05-13T21:54:32.953Z,12.20
2023-05-13T21:56:59.585Z,12.20
2023-05-13T21:59:26.998Z,12.20
2023-05-13T22:01:53.669Z,12.20
2023-05-13T22:04:20.888Z,12.20
2023-05-13T22:06:47.472Z,12.20
2023-05-13T22:09:14.752Z,12.20
2023-05-13T22:11:41.368Z,12.30
2023-05-13T22:14:08.614Z,12.30
2023-05-13T22:16:35.307Z,12.30
2023-05-13T22:19:04.550Z,12.40
2023-05-13T22:21:32.335Z,12.40
2023-05-13T22:23:59.770Z,12.40
2023-05-13T22:26:26.351Z,12.40
2023-05-13T22:28:53.691Z,12.40
2023-05-13T22:31:20.361Z,12.30
2023-05-13T22:33:47.651Z,12.30
2023-05-13T22:36:15.376Z,12.40
2023-05-13T22:38:42.946Z,12.30
2023-05-13T22:41:09.544Z,12.40
2023-05-13T22:43:36.787Z,12.40
2023-05-13T22:46:03.911Z,12.40
2023-05-13T22:48:31.195Z,12.30
2023-05-13T22:50:58.276Z,12.30
2023-05-13T22:53:25.833Z,12.30
2023-05-13T22:55:52.712Z,12.30
2023-05-13T22:58:23.112Z,12.30
2023-05-13T23:00:49.915Z,12.30
2023-05-13T23:03:17.511Z,12.30
2023-05-13T23:05:44.180Z,12.30
2023-05-13T23:08:11.531Z,12.30
2023-05-13T23:10:38.154Z,12.40
2023-05-13T23:13:06.036Z,12.30
2023-05-13T23:15:33.097Z,12.40
2023-05-13T23:18:00.419Z,12.40
2023-05-13T23:20:27.139Z,12.40
2023-05-13T23:22:55.281Z,12.40
2023-05-13T23:25:21.948Z,12.50
2023-05-13T23:27:50.540Z,12.50
2023-05-13T23:30:17.463Z,12.60
2023-05-13T23:32:44.920Z,12.60
2023-05-13T23:35:11.918Z,12.50
2023-05-13T23:37:39.260Z,12.50
2023-05-13T23:40:06.690Z,12.50
2023-05-13T23:42:33.941Z,12.50
2023-05-13T23:45:00.612Z,12.50
2023-05-13T23:47:27.981Z,12.60
2023-05-13T23:49:54.699Z,12.50
2023-05-13T23:52:21.947Z,12.50
2023-05-13T23:54:48.560Z,12.50
2023-05-13T23:57:15.859Z,12.40
2023-05-13T23:59:42.487Z,12.40
